createdAt,value
2022-10-16T00:07:43.997Z,100279.31
2022-10-16T00:15:46.620Z,100299.56
2022-10-16T00:20:21.685Z,100295.78
2022-10-16T00:23:23.541Z,100293.19
2022-10-16T00:26:25.008Z,100286.25
2022-10-16T00:29:26.537Z,100279.41
2022-10-16T00:32:28.195Z,100254.78
2022-10-16T00:35:30.061Z,100257.38
2022-10-16T00:38:32.082Z,100267.41
2022-10-16T00:41:34.835Z,100284.34
2022-10-16T00:44:50.841Z,100285.88
2022-10-16T00:47:54.915Z,100283.22
2022-10-16T00:50:58.808Z,100296.69
2022-10-16T00:54:03.071Z,100303.94
2022-10-16T00:57:07.077Z,100303.94
2022-10-16T01:00:10.951Z,100305.44
2022-10-16T01:03:33.488Z,100295.00
2022-10-16T01:06:52.229Z,100287.09
2022-10-16T01:10:23.295Z,100298.41
2022-10-16T01:13:39.576Z,100299.63
2022-10-16T01:16:48.467Z,100297.81
2022-10-16T01:20:05.109Z,100302.13
2022-10-16T01:23:24.826Z,100308.88
2022-10-16T01:26:45.853Z,100303.94
2022-10-16T01:29:55.031Z,100309.03
2022-10-16T01:32:59.463Z,100298.03
2022-10-16T01:36:07.749Z,100304.09
2022-10-16T01:39:12.646Z,100306.66
2022-10-16T01:42:19.918Z,100306.75
2022-10-16T01:45:22.474Z,100298.03
2022-10-16T01:48:24.810Z,100301.34
2022-10-16T01:51:28.387Z,100299.47
2022-10-16T01:54:33.141Z,100307.34
2022-10-16T01:57:39.302Z,100310.19
2022-10-16T02:00:43.946Z,100314.00
2022-10-16T02:03:47.087Z,100319.66
2022-10-16T02:06:48.668Z,100319.72
2022-10-16T02:09:50.462Z,100311.81
2022-10-16T02:13:00.106Z,100305.41
2022-10-16T02:16:01.750Z,100322.91
2022-10-16T02:19:04.337Z,100321.19
2022-10-16T02:22:08.993Z,100335.44
2022-10-16T02:25:25.700Z,100318.69
2022-10-16T02:28:42.403Z,100315.06
2022-10-16T02:31:48.903Z,100321.25
2022-10-16T02:34:52.354Z,100316.03
2022-10-16T02:37:55.182Z,100322.06
2022-10-16T02:40:57.134Z,100323.25
2022-10-16T02:43:58.753Z,100324.03
2022-10-16T02:47:00.334Z,100331.16
2022-10-16T02:50:01.866Z,100310.97
2022-10-16T02:53:03.552Z,100320.94
2022-10-16T02:56:05.258Z,100314.28
2022-10-16T02:59:06.706Z,100327.50
2022-10-16T03:02:08.307Z,100334.25
2022-10-16T03:05:10.672Z,100335.03
2022-10-16T03:08:13.211Z,100340.16
2022-10-16T03:11:14.708Z,100340.16
2022-10-16T03:14:16.197Z,100341.88
2022-10-16T03:17:18.413Z,100344.47
2022-10-16T03:20:19.804Z,100332.38
2022-10-16T03:23:21.326Z,100335.63
2022-10-16T03:26:22.952Z,100338.56
2022-10-16T03:29:24.655Z,100337.56
2022-10-16T03:32:26.360Z,100342.53
2022-10-16T03:35:27.819Z,100334.84
2022-10-16T03:38:29.517Z,100325.81
2022-10-16T03:41:30.978Z,100320.66
2022-10-16T03:44:32.407Z,100314.59
2022-10-16T03:47:34.392Z,100316.41
2022-10-16T03:50:35.884Z,100328.72
2022-10-16T03:53:37.522Z,100329.50
2022-10-16T03:56:39.307Z,100334.06
2022-10-16T03:59:40.697Z,100337.56
2022-10-16T04:02:42.361Z,100342.03
2022-10-16T04:05:43.838Z,100343.00
2022-10-16T04:08:45.495Z,100350.81
2022-10-16T04:11:47.055Z,100358.78
2022-10-16T04:14:48.538Z,100360.59
2022-10-16T04:17:50.012Z,100339.38
2022-10-16T04:20:51.625Z,100355.97
2022-10-16T04:23:53.171Z,100356.91
2022-10-16T04:26:54.582Z,100347.19
2022-10-16T04:29:56.102Z,100354.25
2022-10-16T04:32:57.563Z,100371.41
2022-10-16T04:36:00.328Z,100372.28
2022-10-16T04:39:01.911Z,100385.41
2022-10-16T04:42:03.597Z,100366.19
2022-10-16T04:45:06.662Z,100371.31
2022-10-16T04:48:08.059Z,100362.59
2022-10-16T04:51:09.666Z,100372.28
2022-10-16T04:54:11.149Z,100372.53
2022-10-16T04:57:12.596Z,100369.78
2022-10-16T05:00:14.348Z,100369.03
2022-10-16T05:03:16.085Z,100374.16
2022-10-16T05:06:17.691Z,100360.09
2022-10-16T05:09:19.460Z,100359.91
2022-10-16T05:12:21.373Z,100358.97
2022-10-16T05:15:25.730Z,100361.06
2022-10-16T05:18:27.170Z,100380.78
2022-10-16T05:21:28.581Z,100370.34
2022-10-16T05:24:30.063Z,100370.06
2022-10-16T05:27:31.448Z,100370.91
2022-10-16T05:30:32.976Z,100367.31
2022-10-16T05:33:34.747Z,100368.25
2022-10-16T05:36:36.250Z,100364.91
2022-10-16T05:39:37.912Z,100362.34
2022-10-16T05:42:40.063Z,100371.84
2022-10-16T05:45:41.659Z,100390.69
2022-10-16T05:48:43.303Z,100393.06
2022-10-16T05:51:44.883Z,100394.34
2022-10-16T05:54:46.305Z,100395.22
2022-10-16T05:57:47.866Z,100396.00
2022-10-16T06:01:12.722Z,100390.06
2022-10-16T06:04:14.226Z,100409.28
2022-10-16T06:07:15.654Z,100408.50
2022-10-16T06:10:17.494Z,100411.00
2022-10-16T06:13:18.981Z,100408.50
2022-10-16T06:16:20.972Z,100400.63
2022-10-16T06:19:23.794Z,100401.66
2022-10-16T06:22:25.244Z,100406.72
2022-10-16T06:25:26.835Z,100417.44
2022-10-16T06:28:28.431Z,100414.97
2022-10-16T06:31:32.010Z,100396.44
2022-10-16T06:34:33.746Z,100393.69
2022-10-16T06:37:35.907Z,100396.22
2022-10-16T06:40:37.572Z,100404.91
2022-10-16T06:43:39.030Z,100402.41
2022-10-16T06:46:40.461Z,100410.41
2022-10-16T06:49:42.005Z,100417.28
2022-10-16T06:52:43.459Z,100415.56
2022-10-16T06:55:44.957Z,100420.69
2022-10-16T06:58:47.539Z,100412.78
2022-10-16T07:01:49.162Z,100429.19
2022-10-16T07:04:50.613Z,100435.56
2022-10-16T07:07:52.211Z,100438.03
2022-10-16T07:11:01.818Z,100448.47
2022-10-16T07:14:04.131Z,100455.53
2022-10-16T07:17:05.587Z,100470.47
2022-10-16T07:20:07.657Z,100471.34
2022-10-16T07:23:09.164Z,100481.66
2022-10-16T07:26:11.380Z,100483.97
2022-10-16T07:29:15.834Z,100495.97
2022-10-16T07:32:17.273Z,100489.53
2022-10-16T07:35:18.802Z,100496.41
2022-10-16T07:38:21.657Z,100497.75
2022-10-16T07:41:23.037Z,100501.00
2022-10-16T07:44:24.418Z,100508.81
2022-10-16T07:47:26.201Z,100512.06
2022-10-16T07:50:27.746Z,100511.81
2022-10-16T07:53:29.249Z,100517.63
2022-10-16T07:56:32.508Z,100524.38
2022-10-16T07:59:33.912Z,100525.09
2022-10-16T08:02:35.334Z,100532.13
2022-10-16T08:05:36.732Z,100532.88
2022-10-16T08:08:38.237Z,100541.47
2022-10-16T08:11:39.812Z,100544.91
2022-10-16T08:14:43.306Z,100541.78
2022-10-16T08:18:01.729Z,100541.31
2022-10-16T08:21:04.431Z,100542.00
2022-10-16T08:24:06.059Z,100529.63
2022-10-16T08:27:07.938Z,100540.38
2022-10-16T08:30:10.146Z,100537.53
2022-10-16T08:33:12.198Z,100546.47
2022-10-16T08:36:14.772Z,100539.44
2022-10-16T08:39:16.884Z,100544.19
2022-10-16T08:42:45.230Z,100545.91
2022-10-16T08:46:14.625Z,100554.47
2022-10-16T08:49:16.463Z,100557.22
2022-10-16T08:52:17.938Z,100568.56
2022-10-16T08:55:30.194Z,100571.06
2022-10-16T08:58:31.638Z,100580.78
2022-10-16T09:01:41.646Z,100586.72
2022-10-16T09:05:13.013Z,100592.34
2022-10-16T09:08:34.583Z,100598.09
2022-10-16T09:11:44.923Z,100606.59
2022-10-16T09:19:44.515Z,100615.94
2022-10-16T09:22:52.591Z,100629.38
2022-10-16T09:26:02.003Z,100631.28
2022-10-16T09:29:04.657Z,100629.75
2022-10-16T09:32:20.414Z,100635.19
2022-10-16T09:35:28.218Z,100626.81
2022-10-16T09:38:32.895Z,100633.50
2022-10-16T09:41:38.423Z,100648.94
2022-10-16T09:48:14.501Z,100629.78
2022-10-16T09:55:29.843Z,100638.53
2022-10-16T10:07:36.143Z,100646.84
2022-10-16T10:10:43.842Z,100643.41
2022-10-16T10:13:45.352Z,100649.78
2022-10-16T10:16:47.767Z,100654.81
2022-10-16T10:19:53.698Z,100644.47
2022-10-16T10:22:56.616Z,100636.75
2022-10-16T10:26:14.887Z,100634.69
2022-10-16T10:29:31.538Z,100636.03
2022-10-16T10:33:08.660Z,100632.72
2022-10-16T10:36:26.686Z,100636.06
2022-10-16T10:39:43.649Z,100635.78
2022-10-16T10:43:05.535Z,100628.81
2022-10-16T10:46:23.477Z,100627.31
2022-10-16T10:49:53.683Z,100619.38
2022-10-16T10:53:25.597Z,100616.44
2022-10-16T10:56:45.604Z,100631.66
2022-10-16T10:59:56.175Z,100637.00
2022-10-16T11:03:30.063Z,100619.88
2022-10-16T11:06:37.055Z,100622.28
2022-10-16T11:09:43.482Z,100629.34
2022-10-16T11:12:49.349Z,100629.19
2022-10-16T11:15:55.022Z,100628.09
2022-10-16T11:19:16.074Z,100626.19
2022-10-16T11:22:31.395Z,100637.72
2022-10-16T11:25:33.915Z,100636.47
2022-10-16T11:28:44.255Z,100633.97
2022-10-16T11:31:51.202Z,100627.88
2022-10-16T11:35:14.776Z,100617.84
2022-10-16T11:38:30.063Z,100606.81
2022-10-16T11:41:46.568Z,100609.63
2022-10-16T11:45:19.907Z,100603.78
2022-10-16T11:48:58.223Z,100611.19
2022-10-16T11:52:19.931Z,100607.84
2022-10-16T11:55:27.172Z,100614.16
2022-10-16T11:58:33.444Z,100613.47
2022-10-16T12:01:37.764Z,100620.97
2022-10-16T12:04:52.593Z,100612.94
2022-10-16T12:08:07.999Z,100613.91
2022-10-16T12:11:36.783Z,100610.66
2022-10-16T12:15:03.986Z,100610.66
2022-10-16T12:18:02.420Z,100614.75
2022-10-16T12:21:08.213Z,100612.38
2022-10-16T12:24:43.275Z,100605.06
2022-10-16T12:27:44.938Z,100594.16
2022-10-16T12:30:58.495Z,100597.34
2022-10-16T12:34:03.101Z,100590.56
2022-10-16T12:37:12.541Z,100600.09
2022-10-16T12:40:25.709Z,100596.19
2022-10-16T12:43:40.110Z,100595.19
2022-10-16T12:46:41.484Z,100601.09
2022-10-16T12:49:50.397Z,100600.25
2022-10-16T12:52:51.922Z,100593.16
2022-10-16T12:56:10.463Z,100597.66
2022-10-16T12:59:39.950Z,100595.31
2022-10-16T13:03:00.191Z,100596.88
2022-10-16T13:06:24.868Z,100604.47
2022-10-16T13:09:44.686Z,100605.81
2022-10-16T13:12:59.346Z,100612.22
2022-10-16T13:16:16.938Z,100611.81
2022-10-16T13:19:43.877Z,100616.31
2022-10-16T13:22:56.714Z,100624.97
2022-10-16T13:26:31.414Z,100626.91
2022-10-16T13:29:34.764Z,100628.44
2022-10-16T13:32:36.312Z,100624.63
2022-10-16T13:35:38.132Z,100635.34
2022-10-16T13:38:39.516Z,100626.16
2022-10-16T13:41:41.998Z,100613.31
2022-10-16T13:44:51.743Z,100608.28
2022-10-16T13:48:04.482Z,100612.69
2022-10-16T13:51:15.278Z,100606.06
2022-10-16T13:54:16.708Z,100625.16
2022-10-16T13:57:27.550Z,100619.88
2022-10-16T14:00:33.812Z,100621.81
2022-10-16T14:03:36.596Z,100614.41
2022-10-16T14:06:42.405Z,100614.63
2022-10-16T14:09:50.605Z,100606.28
2022-10-16T14:12:56.773Z,100590.31
2022-10-16T14:16:01.428Z,100595.03
2022-10-16T14:19:11.342Z,100615.22
2022-10-16T14:22:29.684Z,100617.66
2022-10-16T14:25:33.386Z,100617.03
2022-10-16T14:28:36.084Z,100622.59
2022-10-16T14:31:38.357Z,100622.06
2022-10-16T14:34:41.354Z,100618.75
2022-10-16T14:37:44.930Z,100620.59
2022-10-16T14:40:49.593Z,100623.50
2022-10-16T14:43:55.549Z,100632.66
2022-10-16T14:46:57.350Z,100621.41
2022-10-16T14:50:00.565Z,100609.50
2022-10-16T14:53:02.089Z,100614.75
2022-10-16T14:56:17.231Z,100625.38
2022-10-16T14:59:29.520Z,100632.25
2022-10-16T15:02:33.913Z,100626.38
2022-10-16T15:05:35.492Z,100628.38
2022-10-16T15:08:36.902Z,100623.44
2022-10-16T15:11:38.483Z,100615.59
2022-10-16T15:14:39.881Z,100623.09
2022-10-16T15:17:41.313Z,100624.91
2022-10-16T15:20:42.711Z,100627.81
2022-10-16T15:23:44.110Z,100628.78
2022-10-16T15:26:46.901Z,100629.97
2022-10-16T15:29:48.307Z,100632.25
2022-10-16T15:32:49.718Z,100632.88
2022-10-16T15:35:52.589Z,100637.59
2022-10-16T15:38:54.525Z,100630.88
2022-10-16T15:41:56.035Z,100632.25
2022-10-16T15:44:57.420Z,100636.09
2022-10-16T15:47:58.833Z,100630.91
2022-10-16T15:51:08.023Z,100630.19
2022-10-16T15:54:09.860Z,100631.38
2022-10-16T15:57:11.300Z,100635.22
2022-10-16T16:00:15.633Z,100636.16
2022-10-16T16:03:17.005Z,100640.13
2022-10-16T16:06:18.393Z,100637.59
2022-10-16T16:09:19.768Z,100640.56
2022-10-16T16:12:21.164Z,100642.50
2022-10-16T16:15:23.624Z,100643.78
2022-10-16T16:18:25.945Z,100644.81
2022-10-16T16:21:27.337Z,100653.41
2022-10-16T16:24:28.730Z,100646.94
2022-10-16T16:27:33.880Z,100645.84
2022-10-16T16:30:35.379Z,100646.25
2022-10-16T16:33:36.861Z,100653.94
2022-10-16T16:36:38.402Z,100654.34
2022-10-16T16:39:39.822Z,100654.50
2022-10-16T16:42:41.222Z,100660.25
2022-10-16T16:45:42.612Z,100650.72
2022-10-16T16:48:44.620Z,100651.91
2022-10-16T16:51:46.026Z,100654.88
2022-10-16T16:54:52.503Z,100649.06
2022-10-16T16:57:54.486Z,100657.28
2022-10-16T17:00:57.215Z,100665.50
2022-10-16T17:04:11.206Z,100655.84
2022-10-16T17:07:12.802Z,100662.28
2022-10-16T17:10:14.172Z,100665.50
2022-10-16T17:13:15.598Z,100670.38
2022-10-16T17:16:17.578Z,100674.13
2022-10-16T17:19:20.306Z,100677.97
2022-10-16T17:22:22.061Z,100680.81
2022-10-16T17:25:25.130Z,100674.91
2022-10-16T17:28:27.016Z,100679.47
2022-10-16T17:31:33.847Z,100675.19
2022-10-16T17:34:35.568Z,100677.19
2022-10-16T17:37:37.005Z,100679.09
2022-10-16T17:40:38.789Z,100686.34
2022-10-16T17:43:40.508Z,100690.91
2022-10-16T17:46:41.905Z,100689.31
2022-10-16T17:49:43.489Z,100689.59
2022-10-16T17:52:44.920Z,100692.63
2022-10-16T17:55:46.288Z,100695.66
2022-10-16T17:58:52.982Z,100695.09
2022-10-16T18:01:54.446Z,100694.50
2022-10-16T18:04:55.845Z,100702.97
2022-10-16T18:07:57.973Z,100703.53
2022-10-16T18:10:59.395Z,100700.44
2022-10-16T18:14:01.691Z,100708.19
2022-10-16T18:17:03.195Z,100709.31
2022-10-16T18:20:06.821Z,100707.59
2022-10-16T18:23:08.282Z,100712.94
2022-10-16T18:26:11.433Z,100719.31
2022-10-16T18:29:13.422Z,100709.69
2022-10-16T18:32:14.820Z,100725.69
2022-10-16T18:35:16.342Z,100716.75
2022-10-16T18:38:20.586Z,100716.75
2022-10-16T18:41:22.644Z,100714.00
2022-10-16T18:44:24.110Z,100715.69
2022-10-16T18:47:25.767Z,100716.66
2022-10-16T18:50:27.522Z,100714.81
2022-10-16T18:56:35.726Z,100709.09
2022-10-16T18:59:37.138Z,100710.63
2022-10-16T19:02:38.697Z,100723.97
2022-10-16T19:05:40.168Z,100713.28
2022-10-16T19:08:42.687Z,100725.50
2022-10-16T19:11:44.956Z,100723.59
2022-10-16T19:14:48.818Z,100721.00
2022-10-16T19:17:50.198Z,100723.97
2022-10-16T19:20:51.565Z,100730.06
2022-10-16T19:23:59.120Z,100730.81
2022-10-16T19:27:00.508Z,100738.09
2022-10-16T19:30:02.390Z,100744.94
2022-10-16T19:33:04.540Z,100743.59
2022-10-16T19:36:13.451Z,100737.88
2022-10-16T19:42:21.384Z,100740.38
2022-10-16T19:45:22.821Z,100742.63
2022-10-16T19:51:31.719Z,100751.69
2022-10-16T19:54:33.480Z,100754.44
2022-10-16T19:57:38.427Z,100761.66
2022-10-16T20:00:43.006Z,100762.22
2022-10-16T20:03:45.461Z,100762.56
2022-10-16T20:06:46.870Z,100766.09
2022-10-16T20:09:48.326Z,100768.56
2022-10-16T20:12:49.700Z,100774.09
2022-10-16T20:15:51.232Z,100777.84
2022-10-16T20:18:53.465Z,100777.38
2022-10-16T20:21:54.945Z,100780.78
2022-10-16T20:24:56.410Z,100782.59
2022-10-16T20:27:57.896Z,100787.59
2022-10-16T20:31:06.634Z,100784.06
2022-10-16T20:34:11.210Z,100792.91
2022-10-16T20:37:12.600Z,100793.03
2022-10-16T20:40:14.200Z,100799.91
2022-10-16T20:43:18.106Z,100809.03
2022-10-16T20:46:23.347Z,100811.50
2022-10-16T20:49:39.218Z,100816.84
2022-10-16T20:52:40.958Z,100814.50
2022-10-16T20:55:42.398Z,100829.31
2022-10-16T20:58:44.989Z,100822.25
2022-10-16T21:01:46.551Z,100823.31
2022-10-16T21:04:49.714Z,100831.91
2022-10-16T21:07:51.097Z,100831.03
2022-10-16T21:10:52.626Z,100838.09
2022-10-16T21:13:56.384Z,100840.84
2022-10-16T21:16:57.775Z,100837.22
2022-10-16T21:19:59.379Z,100832.84
2022-10-16T21:23:02.661Z,100844.44
2022-10-16T21:26:04.305Z,100839.97
2022-10-16T21:29:07.322Z,100848.06
2022-10-16T21:32:08.804Z,100852.63
2022-10-16T21:35:10.237Z,100854.59
2022-10-16T21:38:11.626Z,100852.97
2022-10-16T21:41:15.145Z,100857.59
2022-10-16T21:44:17.348Z,100853.53
2022-10-16T21:47:19.085Z,100847.34
2022-10-16T21:50:20.480Z,100852.53
2022-10-16T21:53:21.867Z,100852.75
2022-10-16T21:56:23.496Z,100851.75
2022-10-16T21:59:24.892Z,100850.81
2022-10-16T22:02:26.286Z,100856.22
2022-10-16T22:05:27.691Z,100854.41
2022-10-16T22:08:29.239Z,100863.72
2022-10-16T22:11:36.838Z,100859.31
2022-10-16T22:14:39.926Z,100864.91
2022-10-16T22:17:41.381Z,100867.66
2022-10-16T22:20:46.548Z,100864.19
2022-10-16T22:23:48.057Z,100880.28
2022-10-16T22:26:49.905Z,100882.00
2022-10-16T22:29:52.152Z,100866.09
2022-10-16T22:32:53.544Z,100874.34
2022-10-16T22:35:54.951Z,100877.16
2022-10-16T22:38:56.572Z,100872.78
2022-10-16T22:41:57.970Z,100870.19
2022-10-16T22:44:59.341Z,100878.28
2022-10-16T22:48:01.142Z,100875.88
2022-10-16T22:51:04.077Z,100881.44
2022-10-16T22:54:05.590Z,100882.38
2022-10-16T22:57:06.985Z,100877.19
2022-10-16T23:00:12.337Z,100879.13
2022-10-16T23:03:13.853Z,100883.56
2022-10-16T23:06:15.504Z,100881.16
2022-10-16T23:09:16.874Z,100886.31
2022-10-16T23:12:21.578Z,100890.09
2022-10-16T23:15:22.963Z,100898.34
2022-10-16T23:18:24.352Z,100897.47
2022-10-16T23:21:26.732Z,100901.41
2022-10-16T23:24:31.009Z,100902.41
2022-10-16T23:27:33.107Z,100900.84
2022-10-16T23:30:34.492Z,100914.97
2022-10-16T23:33:37.196Z,100921.47
2022-10-16T23:36:38.597Z,100918.94
2022-10-16T23:39:40.078Z,100933.31
2022-10-16T23:42:41.470Z,100920.06
2022-10-16T23:45:43.025Z,100928.97
2022-10-16T23:48:44.997Z,100929.16
2022-10-16T23:51:46.370Z,100923.19
2022-10-16T23:54:47.875Z,100925.69
2022-10-16T23:57:49.336Z,100922.53
